Time;durP1;ratioP1;P1;durP2;ratioP2;P2;SDS_P1;SDS_P2;PMS_P1;PMS_P2;Temp;Humidity;BMP_temperature;BMP_pressure;BME280_temperature;BME280_humidity;BME280_pressure;Samples;Min_cycle;Max_cycle;Signal;HPM_P1;HPM_P2
2021/06/25 00:00:50;;;;;;;0.60;0.50;;;22.60;40.80;;;;;;5009340;28;20048;-72
2021/06/25 00:03:16;;;;;;;0.75;0.47;;;22.70;41.10;;;;;;5015332;28;20348;-73
2021/06/25 00:05:41;;;;;;;1.42;0.52;;;22.70;40.80;;;;;;5014825;28;20065;-72
2021/06/25 00:08:07;;;;;;;2.97;0.80;;;22.70;40.80;;;;;;5023570;28;20395;-72
2021/06/25 00:10:33;;;;;;;0.80;0.60;;;22.50;40.90;;;;;;5017042;28;20057;-72
2021/06/25 00:13:01;;;;;;;0.95;0.70;;;22.60;41.10;;;;;;5003460;28;20056;-73
2021/06/25 00:15:26;;;;;;;2.17;0.70;;;22.50;41.30;;;;;;5022317;28;20056;-72
2021/06/25 00:17:53;;;;;;;1.17;0.82;;;22.60;41.90;;;;;;5011084;28;20037;-73
2021/06/25 00:20:19;;;;;;;0.85;0.60;;;22.40;42.10;;;;;;5036858;28;20046;-72
2021/06/25 00:22:45;;;;;;;0.75;0.73;;;22.30;42.80;;;;;;5016284;28;20125;-72
2021/06/25 00:25:11;;;;;;;1.92;0.80;;;22.10;43.60;;;;;;5020469;28;20132;-72
2021/06/25 00:27:37;;;;;;;0.75;0.60;;;22.20;43.50;;;;;;5007421;28;20088;-72
2021/06/25 00:30:05;;;;;;;2.28;0.68;;;22.10;43.80;;;;;;5020469;28;20045;-73
2021/06/25 00:32:30;;;;;;;1.23;0.80;;;22.30;43.60;;;;;;5019183;28;20037;-72
2021/06/25 00:34:56;;;;;;;2.38;1.10;;;22.30;43.30;;;;;;5023493;28;20044;-73
2021/06/25 00:37:22;;;;;;;1.02;0.80;;;22.30;43.50;;;;;;5015385;28;20038;-72
2021/06/25 00:39:47;;;;;;;1.00;0.80;;;22.20;43.70;;;;;;5013805;28;20525;-73
2021/06/25 00:42:13;;;;;;;3.50;1.10;;;22.20;44.00;;;;;;5016459;28;20045;-67
2021/06/25 00:44:42;;;;;;;1.50;0.80;;;22.20;43.80;;;;;;5027105;28;20472;-73
2021/06/25 00:47:08;;;;;;;2.00;1.00;;;22.20;44.30;;;;;;5009629;28;20042;-73
2021/06/25 00:49:35;;;;;;;2.03;0.90;;;22.10;44.40;;;;;;5003887;28;20077;-72
2021/06/25 00:52:02;;;;;;;2.28;1.02;;;22.20;43.90;;;;;;5009222;28;20068;-72
2021/06/25 00:54:27;;;;;;;1.77;1.15;;;22.10;44.20;;;;;;5018490;28;20521;-72
2021/06/25 00:56:53;;;;;;;1.20;0.90;;;22.10;44.10;;;;;;5022082;28;20037;-73
2021/06/25 00:59:18;;;;;;;1.42;0.93;;;22.00;44.30;;;;;;5031854;28;20376;-72
2021/06/25 01:01:44;;;;;;;1.73;0.70;;;22.10;44.70;;;;;;5019794;28;20134;-71
2021/06/25 01:04:13;;;;;;;3.92;0.90;;;22.10;44.60;;;;;;5014566;28;20079;-72
2021/06/25 01:06:39;;;;;;;1.00;0.70;;;22.10;44.50;;;;;;5019862;28;20507;-71
2021/06/25 01:09:05;;;;;;;1.55;0.93;;;22.10;44.20;;;;;;5016444;28;20103;-72
2021/06/25 01:11:31;;;;;;;3.10;1.08;;;22.00;44.30;;;;;;5016932;28;20099;-72
2021/06/25 01:13:58;;;;;;;2.33;1.10;;;22.00;44.20;;;;;;5005605;28;20445;-71
2021/06/25 01:16:24;;;;;;;1.02;0.70;;;22.00;44.40;;;;;;5019693;28;20562;-73
2021/06/25 01:18:49;;;;;;;1.73;0.70;;;22.00;44.30;;;;;;5019283;28;20116;-72
2021/06/25 01:21:15;;;;;;;1.08;0.73;;;22.10;44.70;;;;;;5020054;28;20468;-71
2021/06/25 01:23:42;;;;;;;1.40;1.00;;;22.00;44.60;;;;;;5038789;28;20107;-72
2021/06/25 01:26:09;;;;;;;1.08;0.63;;;21.90;44.90;;;;;;5014099;28;20049;-72
2021/06/25 01:28:35;;;;;;;0.88;0.85;;;22.00;44.50;;;;;;5024794;28;20438;-72
2021/06/25 01:31:03;;;;;;;2.05;1.00;;;22.10;44.70;;;;;;5019841;28;20109;-73
2021/06/25 01:33:29;;;;;;;1.88;0.95;;;22.00;44.90;;;;;;5019768;28;20128;-72
2021/06/25 01:35:55;;;;;;;1.23;0.75;;;22.00;44.40;;;;;;5010085;28;20128;-72
2021/06/25 01:38:21;;;;;;;1.67;0.90;;;21.90;44.60;;;;;;5007768;28;20121;-72
2021/06/25 01:40:48;;;;;;;1.70;0.90;;;21.90;44.70;;;;;;5023022;28;20037;-72
2021/06/25 01:43:14;;;;;;;0.77;0.75;;;21.90;44.40;;;;;;5026447;28;20037;-72
2021/06/25 01:45:41;;;;;;;1.95;0.80;;;21.80;44.80;;;;;;5020965;28;20125;-72
2021/06/25 01:48:09;;;;;;;2.08;1.20;;;21.70;45.50;;;;;;5023918;28;20042;-71
2021/06/25 01:50:39;;;;;;;1.25;0.73;;;21.70;45.70;;;;;;5010695;28;20053;-72
2021/06/25 01:53:06;;;;;;;1.45;0.77;;;21.70;45.90;;;;;;5017574;28;20136;-72
2021/06/25 01:55:39;;;;;;;1.00;0.88;;;21.80;46.60;;;;;;5011383;28;20037;-72
2021/06/25 01:58:24;;;;;;;4.10;0.85;;;21.60;46.20;;;;;;5021143;28;20167;-72
2021/06/25 02:01:17;;;;;;;1.00;1.00;;;21.50;46.50;;;;;;4987429;28;20049;-71
2021/06/25 02:03:44;;;;;;;2.17;1.50;;;21.50;46.80;;;;;;5020971;28;20038;-72
2021/06/25 02:06:11;;;;;;;0.60;0.60;;;21.40;46.60;;;;;;5020912;28;20041;-72
2021/06/25 02:08:39;;;;;;;1.42;0.75;;;21.30;46.90;;;;;;5010668;28;20096;-71
2021/06/25 02:11:05;;;;;;;2.05;0.93;;;21.40;46.80;;;;;;5012226;28;20034;-71
2021/06/25 02:13:30;;;;;;;3.92;0.98;;;21.50;46.60;;;;;;5017123;28;20049;-72
2021/06/25 02:15:56;;;;;;;0.65;0.63;;;21.50;46.40;;;;;;5004574;28;20113;-72
2021/06/25 02:18:22;;;;;;;4.78;1.58;;;21.50;46.60;;;;;;5010052;28;20041;-72
2021/06/25 02:20:48;;;;;;;1.85;0.82;;;21.50;46.80;;;;;;5019838;28;20084;-72
2021/06/25 02:23:14;;;;;;;2.30;0.70;;;21.50;46.50;;;;;;5024569;28;20061;-67
2021/06/25 02:25:39;;;;;;;2.30;0.88;;;21.50;46.70;;;;;;5017929;28;20049;-72
2021/06/25 02:28:05;;;;;;;3.22;0.80;;;21.50;46.70;;;;;;5017722;28;20044;-72
2021/06/25 02:30:31;;;;;;;1.52;0.73;;;21.40;46.60;;;;;;5018120;28;20045;-72
2021/06/25 02:32:56;;;;;;;1.70;0.65;;;21.50;46.90;;;;;;5007440;28;20054;-72
2021/06/25 02:35:22;;;;;;;1.92;1.48;;;21.40;47.10;;;;;;5016823;28;20096;-72
2021/06/25 02:37:48;;;;;;;1.10;1.05;;;21.20;47.50;;;;;;5015467;28;20034;-72
2021/06/25 02:40:14;;;;;;;1.75;0.80;;;21.20;47.60;;;;;;5020621;28;20111;-72
2021/06/25 02:42:40;;;;;;;0.77;0.70;;;21.30;47.70;;;;;;5016888;28;20504;-72
2021/06/25 02:45:06;;;;;;;1.88;0.95;;;21.20;47.60;;;;;;5016771;28;20061;-73
2021/06/25 02:47:34;;;;;;;1.13;0.95;;;21.20;48.10;;;;;;5002690;28;20108;-72
2021/06/25 02:50:03;;;;;;;2.67;1.05;;;21.10;47.70;;;;;;5016300;28;20030;-72
2021/06/25 02:52:28;;;;;;;1.70;1.15;;;21.00;48.00;;;;;;5030566;28;20045;-72
2021/06/25 02:54:54;;;;;;;3.08;1.02;;;21.10;48.20;;;;;;5022937;28;20045;-72
2021/06/25 02:57:20;;;;;;;0.73;0.70;;;21.00;48.20;;;;;;5012112;28;20137;-72
2021/06/25 02:59:45;;;;;;;0.77;0.70;;;21.00;48.40;;;;;;5021438;28;20504;-72
2021/06/25 03:02:11;;;;;;;1.08;0.80;;;21.10;48.30;;;;;;5023427;28;20053;-72
2021/06/25 03:04:37;;;;;;;1.27;1.15;;;21.10;48.50;;;;;;5020214;28;20121;-72
2021/06/25 03:07:02;;;;;;;1.73;0.98;;;21.00;48.30;;;;;;5014872;28;20044;-72
2021/06/25 03:09:28;;;;;;;2.75;0.60;;;21.10;48.20;;;;;;5015652;28;20060;-72
2021/06/25 03:11:53;;;;;;;0.85;0.60;;;21.10;48.10;;;;;;5024563;28;20120;-72
2021/06/25 03:14:19;;;;;;;1.13;1.00;;;21.00;48.40;;;;;;5015265;28;20064;-73
2021/06/25 03:16:45;;;;;;;2.90;0.73;;;21.00;48.60;;;;;;5020208;28;20053;-72
2021/06/25 03:19:10;;;;;;;0.68;0.68;;;20.90;48.70;;;;;;5021514;28;20647;-72
2021/06/25 03:21:36;;;;;;;3.40;0.77;;;21.00;48.70;;;;;;5022631;28;20081;-71
2021/06/25 03:24:02;;;;;;;1.88;1.00;;;20.90;48.50;;;;;;5019235;28;20040;-74
2021/06/25 03:26:27;;;;;;;2.22;0.80;;;20.90;48.80;;;;;;5024528;28;20898;-72
2021/06/25 03:28:53;;;;;;;0.63;0.63;;;20.80;48.90;;;;;;5008938;28;20133;-72
2021/06/25 03:31:21;;;;;;;1.35;0.60;;;20.80;48.90;;;;;;5018253;28;20403;-71
2021/06/25 03:33:47;;;;;;;1.58;0.60;;;20.90;48.90;;;;;;5016061;28;20116;-71
2021/06/25 03:36:13;;;;;;;1.10;0.90;;;20.80;49.10;;;;;;5021560;28;20041;-72
2021/06/25 03:38:38;;;;;;;1.20;0.60;;;20.80;49.10;;;;;;5006520;28;20381;-71
2021/06/25 03:41:04;;;;;;;3.08;1.15;;;20.80;49.20;;;;;;5009136;28;20058;-71
2021/06/25 03:43:29;;;;;;;2.05;0.95;;;20.70;49.70;;;;;;5003267;28;20025;-72
2021/06/25 03:45:55;;;;;;;1.27;0.57;;;20.80;49.60;;;;;;5020038;28;20046;-72
2021/06/25 03:48:21;;;;;;;8.38;0.98;;;20.70;49.50;;;;;;5018546;28;20050;-72
2021/06/25 03:50:46;;;;;;;0.93;0.82;;;20.70;49.90;;;;;;5006926;28;20068;-72
2021/06/25 03:53:12;;;;;;;1.80;0.70;;;20.80;49.80;;;;;;5017444;28;20041;-71
2021/06/25 03:56:09;;;;;;;2.10;1.00;;;20.80;49.70;;;;;;4999242;28;20518;-72
2021/06/25 03:58:23;;;;;;;2.00;1.00;;;20.70;49.70;;;;;;4997050;28;20038;-72
2021/06/25 04:00:49;;;;;;;1.05;0.90;;;20.70;49.90;;;;;;5025612;28;20049;-72
2021/06/25 04:03:15;;;;;;;1.60;0.70;;;20.60;50.60;;;;;;5019535;28;20041;-68
2021/06/25 04:05:41;;;;;;;0.80;0.70;;;20.60;50.60;;;;;;5017808;28;20026;-72
2021/06/25 04:08:06;;;;;;;5.57;1.20;;;20.60;50.40;;;;;;5022648;28;20060;-71
2021/06/25 04:10:32;;;;;;;1.08;0.70;;;20.50;50.80;;;;;;5016047;28;20061;-72
2021/06/25 04:12:57;;;;;;;3.45;0.88;;;20.50;50.60;;;;;;5016328;28;20046;-71
2021/06/25 04:15:23;;;;;;;2.55;1.20;;;20.50;50.70;;;;;;5004911;28;20038;-71
2021/06/25 04:17:49;;;;;;;1.70;1.13;;;20.50;50.60;;;;;;5002514;28;20026;-71
2021/06/25 04:20:15;;;;;;;1.13;0.85;;;20.50;50.50;;;;;;5010617;28;20046;-66
2021/06/25 04:22:41;;;;;;;1.67;1.23;;;20.50;50.60;;;;;;5013695;28;20095;-71
2021/06/25 04:25:08;;;;;;;2.05;0.85;;;20.70;51.00;;;;;;5018918;28;20069;-71
2021/06/25 04:27:33;;;;;;;2.25;0.90;;;20.60;50.40;;;;;;5022217;28;20546;-71
2021/06/25 04:29:59;;;;;;;2.03;1.00;;;20.70;50.30;;;;;;5023012;28;20601;-72
2021/06/25 04:32:25;;;;;;;1.65;0.70;;;20.70;49.90;;;;;;5019281;28;20041;-72
2021/06/25 04:34:50;;;;;;;1.13;1.00;;;20.70;49.90;;;;;;5020920;28;20095;-71
2021/06/25 04:37:17;;;;;;;0.90;0.73;;;20.60;50.00;;;;;;5015171;28;20036;-70
2021/06/25 04:39:43;;;;;;;2.42;1.10;;;20.70;50.00;;;;;;5025003;28;20044;-72
2021/06/25 04:42:12;;;;;;;1.67;0.77;;;20.70;49.90;;;;;;5011339;28;20049;-73
2021/06/25 04:44:40;;;;;;;1.33;0.90;;;20.50;50.10;;;;;;5013707;28;20042;-72
2021/06/25 04:47:07;;;;;;;2.75;1.23;;;20.60;50.20;;;;;;5009541;28;20037;-72
2021/06/25 04:49:40;;;;;;;2.10;1.00;;;20.60;50.20;;;;;;5011418;28;20088;-73
2021/06/25 04:52:07;;;;;;;4.07;1.23;;;20.60;50.20;;;;;;5012780;28;20124;-72
2021/06/25 04:54:33;;;;;;;3.05;1.13;;;20.50;50.40;;;;;;5020129;28;20037;-72
2021/06/25 04:56:59;;;;;;;1.33;0.70;;;20.60;50.30;;;;;;5016026;28;20034;-73
2021/06/25 04:59:25;;;;;;;1.45;1.10;;;20.70;50.40;;;;;;5017918;28;20034;-72
2021/06/25 05:01:50;;;;;;;2.03;1.02;;;20.80;50.10;;;;;;5017490;28;20506;-73
2021/06/25 05:04:16;;;;;;;2.72;1.42;;;20.80;50.10;;;;;;5018865;28;20107;-72
2021/06/25 05:06:41;;;;;;;3.13;0.90;;;20.80;49.80;;;;;;5038832;28;20048;-72
2021/06/25 05:09:07;;;;;;;2.00;1.20;;;20.90;49.90;;;;;;5015380;28;20156;-72
2021/06/25 05:11:33;;;;;;;1.90;1.25;;;20.90;49.40;;;;;;5018439;28;20157;-72
2021/06/25 05:13:58;;;;;;;1.77;1.10;;;21.00;49.50;;;;;;5012814;28;20056;-72
2021/06/25 05:16:24;;;;;;;2.05;0.95;;;21.00;49.10;;;;;;5016459;28;20038;-71
2021/06/25 05:18:50;;;;;;;1.48;1.00;;;21.00;48.70;;;;;;5006833;28;20092;-71
2021/06/25 05:21:15;;;;;;;1.10;1.08;;;21.00;48.50;;;;;;5006744;28;20042;-62
2021/06/25 05:23:41;;;;;;;0.75;0.75;;;21.10;48.40;;;;;;5019780;28;20064;-73
2021/06/25 05:26:06;;;;;;;3.47;1.40;;;21.10;48.00;;;;;;5020604;28;20060;-72
2021/06/25 05:28:32;;;;;;;1.90;1.00;;;21.10;47.90;;;;;;5013371;28;20041;-72
2021/06/25 05:30:58;;;;;;;2.47;1.00;;;21.20;48.00;;;;;;5016027;28;20410;-73
2021/06/25 05:33:23;;;;;;;3.20;0.93;;;21.20;48.10;;;;;;5012826;28;20045;-72
2021/06/25 05:35:49;;;;;;;1.02;0.80;;;21.30;47.90;;;;;;5014538;28;20045;-72
2021/06/25 05:38:16;;;;;;;3.42;1.30;;;21.20;48.00;;;;;;5012663;28;20103;-72
2021/06/25 05:40:43;;;;;;;2.35;1.17;;;21.30;48.60;;;;;;5012347;28;20042;-72
2021/06/25 05:43:09;;;;;;;1.48;0.70;;;21.50;48.10;;;;;;5019566;28;20423;-72
2021/06/25 05:45:36;;;;;;;7.82;1.80;;;21.50;47.70;;;;;;5013888;28;20842;-71
2021/06/25 05:48:03;;;;;;;3.00;0.90;;;21.50;47.00;;;;;;5014772;28;20046;-71
2021/06/25 05:50:29;;;;;;;3.25;0.85;;;21.50;46.40;;;;;;5008940;28;20049;-71
2021/06/25 05:52:55;;;;;;;2.35;1.08;;;21.60;46.40;;;;;;5003163;28;20049;-71
2021/06/25 05:55:20;;;;;;;2.22;0.90;;;21.70;46.40;;;;;;5012187;28;20103;-70
2021/06/25 05:57:48;;;;;;;2.03;1.20;;;21.90;46.10;;;;;;5014890;28;20410;-71
2021/06/25 06:00:16;;;;;;;1.75;0.82;;;21.90;45.80;;;;;;5024502;28;20040;-72
2021/06/25 06:02:42;;;;;;;3.42;0.93;;;22.00;45.00;;;;;;5003483;28;20057;-72
2021/06/25 06:05:08;;;;;;;4.13;0.73;;;22.00;44.30;;;;;;5006387;28;20376;-72
2021/06/25 06:07:34;;;;;;;2.08;0.68;;;22.00;44.30;;;;;;5021840;28;20053;-71
2021/06/25 06:10:00;;;;;;;3.33;0.70;;;22.10;44.20;;;;;;5019324;28;20048;-71
2021/06/25 06:12:25;;;;;;;2.67;0.80;;;22.20;43.70;;;;;;5016117;28;20609;-71
2021/06/25 06:14:51;;;;;;;2.25;0.43;;;22.10;42.60;;;;;;5020400;28;20116;-74
2021/06/25 06:17:19;;;;;;;0.80;0.60;;;22.10;42.00;;;;;;5011699;28;20053;-72
2021/06/25 06:19:47;;;;;;;3.53;1.00;;;22.10;42.70;;;;;;5021287;28;20076;-74
2021/06/25 06:33:15;;;;;;;1.25;0.68;;;22.50;41.60;;;;;;5009425;28;20045;-74
2021/06/25 06:35:41;;;;;;;1.33;1.20;;;22.60;41.40;;;;;;5015431;28;20041;-74
2021/06/25 06:38:06;;;;;;;1.05;0.80;;;22.60;41.10;;;;;;5021529;28;20060;-72
2021/06/25 06:40:33;;;;;;;1.20;0.80;;;22.70;41.10;;;;;;5034721;28;20045;-71
2021/06/25 06:42:59;;;;;;;1.75;0.60;;;22.80;41.10;;;;;;5025795;28;20030;-71
2021/06/25 06:45:25;;;;;;;2.55;0.65;;;22.80;40.60;;;;;;5007268;28;20033;-71
2021/06/25 06:47:51;;;;;;;2.47;0.80;;;22.80;40.50;;;;;;5016277;28;20622;-72
2021/06/25 06:50:17;;;;;;;1.52;0.57;;;22.80;40.00;;;;;;5014454;28;20403;-71
2021/06/25 06:52:46;;;;;;;1.90;0.90;;;22.90;40.30;;;;;;5020918;28;20041;-72
2021/06/25 06:55:13;;;;;;;0.88;0.85;;;23.00;39.60;;;;;;5018135;28;20042;-72
2021/06/25 06:57:39;;;;;;;1.33;0.85;;;23.00;39.80;;;;;;5016820;28;20034;-72
2021/06/25 07:00:06;;;;;;;3.03;0.90;;;23.10;39.90;;;;;;5024250;28;20168;-72
2021/06/25 07:02:33;;;;;;;4.85;0.82;;;23.20;39.60;;;;;;5022674;28;20037;-73
2021/06/25 07:04:59;;;;;;;1.50;0.82;;;23.20;39.00;;;;;;5022470;28;20022;-72
2021/06/25 07:07:24;;;;;;;3.90;0.68;;;23.30;38.80;;;;;;5013513;28;20045;-72
2021/06/25 07:09:50;;;;;;;1.35;0.50;;;23.30;38.40;;;;;;5013076;28;20039;-72
2021/06/25 07:12:16;;;;;;;1.63;0.55;;;23.30;38.60;;;;;;5013181;28;20038;-60
2021/06/25 07:14:41;;;;;;;0.73;0.60;;;23.40;38.70;;;;;;5021934;28;20074;-73
2021/06/25 07:17:07;;;;;;;1.73;0.77;;;23.50;38.40;;;;;;5018058;28;20400;-72
2021/06/25 07:19:32;;;;;;;0.65;0.57;;;23.50;38.30;;;;;;5009872;28;20046;-73
2021/06/25 07:21:58;;;;;;;2.50;0.90;;;23.50;38.40;;;;;;5017611;28;20037;-72
2021/06/25 07:24:23;;;;;;;2.30;0.65;;;23.50;38.70;;;;;;5016483;28;20053;-68
2021/06/25 07:26:49;;;;;;;2.55;0.70;;;23.60;38.50;;;;;;5018753;28;20033;-72
2021/06/25 07:29:15;;;;;;;2.25;0.90;;;23.70;38.40;;;;;;5016009;28;20040;-72
2021/06/25 07:31:41;;;;;;;0.70;0.70;;;23.80;38.50;;;;;;5022670;28;20037;-73
2021/06/25 07:34:07;;;;;;;0.93;0.60;;;23.90;38.20;;;;;;5014309;28;20044;-72
2021/06/25 07:36:33;;;;;;;4.20;0.75;;;23.90;38.30;;;;;;5018848;28;20041;-72
2021/06/25 07:38:58;;;;;;;4.78;1.52;;;24.00;38.40;;;;;;5011671;28;20040;-72
2021/06/25 07:41:24;;;;;;;1.25;0.52;;;24.00;38.30;;;;;;5011922;28;20569;-71
2021/06/25 07:43:50;;;;;;;2.30;0.90;;;24.10;37.70;;;;;;5011348;28;20041;-72
2021/06/25 07:46:15;;;;;;;1.40;0.75;;;24.10;38.20;;;;;;5014147;28;20038;-71
2021/06/25 07:48:41;;;;;;;3.78;1.27;;;24.10;38.30;;;;;;5016521;28;20076;-72
2021/06/25 07:51:06;;;;;;;2.72;0.77;;;24.20;38.60;;;;;;5019365;28;20179;-73
2021/06/25 07:53:32;;;;;;;3.00;0.85;;;24.20;38.50;;;;;;5018889;28;20038;-73
2021/06/25 07:55:58;;;;;;;2.85;1.00;;;24.20;38.40;;;;;;5016216;28;20041;-72
2021/06/25 07:58:23;;;;;;;1.85;0.90;;;24.20;38.50;;;;;;5010657;28;20594;-72
2021/06/25 08:00:49;;;;;;;4.50;0.68;;;24.10;38.60;;;;;;4974236;28;20100;-72
2021/06/25 08:03:15;;;;;;;3.85;1.30;;;24.10;38.40;;;;;;5004957;28;20086;-73
2021/06/25 08:05:40;;;;;;;3.15;0.82;;;24.20;38.80;;;;;;5000902;28;20066;-72
2021/06/25 08:08:07;;;;;;;1.48;0.70;;;24.30;38.60;;;;;;5000976;28;20030;-72
2021/06/25 08:10:33;;;;;;;1.40;0.70;;;24.30;38.50;;;;;;5011074;28;20125;-72
2021/06/25 08:12:59;;;;;;;1.85;1.17;;;24.40;39.10;;;;;;5033130;28;20064;-71
2021/06/25 08:15:25;;;;;;;3.47;1.35;;;24.40;39.60;;;;;;5015707;28;20047;-73
2021/06/25 08:17:50;;;;;;;4.15;1.00;;;24.50;39.80;;;;;;5027631;28;20482;-72
2021/06/25 08:20:17;;;;;;;3.67;1.10;;;24.50;40.00;;;;;;5015275;28;20085;-72
2021/06/25 08:22:42;;;;;;;3.30;1.02;;;24.40;40.10;;;;;;5023282;28;20038;-72
2021/06/25 08:25:09;;;;;;;3.83;1.00;;;24.50;40.30;;;;;;5016560;28;20506;-73
2021/06/25 08:27:34;;;;;;;3.75;1.23;;;24.60;39.60;;;;;;5019393;28;20085;-72
2021/06/25 08:30:01;;;;;;;3.45;1.27;;;24.70;39.50;;;;;;5020237;28;20045;-72
2021/06/25 08:32:26;;;;;;;4.00;1.10;;;24.60;39.90;;;;;;5013687;28;20099;-72
2021/06/25 08:34:52;;;;;;;4.50;1.25;;;24.70;39.90;;;;;;5013573;28;20076;-72
2021/06/25 08:37:18;;;;;;;2.70;1.42;;;24.80;39.40;;;;;;5011765;28;20041;-68
2021/06/25 08:39:43;;;;;;;2.63;1.17;;;24.90;39.70;;;;;;5018147;28;20422;-72
2021/06/25 08:42:09;;;;;;;3.47;1.27;;;25.00;39.50;;;;;;5008368;28;20052;-72
2021/06/25 08:44:37;;;;;;;4.00;1.08;;;24.90;39.50;;;;;;5019805;28;20466;-73
2021/06/25 08:47:04;;;;;;;2.05;1.02;;;25.00;39.40;;;;;;5006133;28;20132;-72
2021/06/25 08:49:32;;;;;;;4.65;1.77;;;25.00;39.60;;;;;;4995006;28;20045;-72
2021/06/25 08:51:58;;;;;;;2.70;1.17;;;25.10;39.50;;;;;;5011400;28;20059;-73
2021/06/25 08:54:24;;;;;;;6.80;1.48;;;25.10;39.60;;;;;;5030633;28;20487;-73
2021/06/25 08:56:49;;;;;;;1.50;1.27;;;25.30;39.50;;;;;;5006997;28;20124;-73
2021/06/25 08:59:19;;;;;;;2.40;1.13;;;25.40;39.30;;;;;;5039630;28;20036;-73
2021/06/25 09:01:50;;;;;;;2.78;1.00;;;25.30;39.10;;;;;;5015055;28;20045;-72
2021/06/25 09:04:37;;;;;;;2.60;1.15;;;25.40;38.90;;;;;;5017908;28;20041;-72
2021/06/25 09:07:05;;;;;;;6.40;1.27;;;25.40;38.80;;;;;;4991721;28;20033;-72
2021/06/25 09:09:56;;;;;;;3.15;1.48;;;25.50;39.00;;;;;;5020827;28;20041;-72
2021/06/25 09:12:23;;;;;;;1.88;1.20;;;25.50;38.70;;;;;;5005218;28;20125;-73
2021/06/25 09:14:54;;;;;;;1.48;1.08;;;25.40;38.50;;;;;;5010524;28;20061;-72
2021/06/25 09:17:20;;;;;;;2.70;0.88;;;25.60;38.20;;;;;;5015120;28;20544;-71
2021/06/25 09:19:45;;;;;;;2.42;0.90;;;25.60;38.30;;;;;;5018689;28;20072;-72
2021/06/25 09:22:11;;;;;;;3.90;1.88;;;25.70;38.90;;;;;;5008634;28;20053;-72
2021/06/25 09:24:37;;;;;;;6.28;2.30;;;25.80;39.00;;;;;;5016813;28;20128;-72
2021/06/25 09:27:06;;;;;;;5.57;1.67;;;25.80;38.70;;;;;;5010958;28;20038;-72
2021/06/25 09:29:40;;;;;;;3.47;2.00;;;25.80;38.90;;;;;;5013173;28;20034;-72
2021/06/25 09:32:14;;;;;;;5.35;1.98;;;25.80;38.80;;;;;;5022078;28;20030;-72
2021/06/25 09:34:47;;;;;;;4.70;1.83;;;25.90;38.90;;;;;;5014762;28;20090;-72
2021/06/25 09:37:15;;;;;;;4.05;1.73;;;26.00;38.80;;;;;;5021824;28;20030;-72
2021/06/25 09:40:02;;;;;;;2.10;1.90;;;26.00;38.10;;;;;;5021326;28;20406;-72
2021/06/25 09:42:28;;;;;;;4.30;1.92;;;26.10;38.10;;;;;;4975600;28;20131;-72
2021/06/25 09:45:07;;;;;;;3.03;1.65;;;26.10;37.90;;;;;;5020404;28;20507;-72
2021/06/25 09:47:38;;;;;;;4.35;2.63;;;26.20;38.20;;;;;;5024997;28;20399;-72
2021/06/25 09:50:15;;;;;;;2.17;1.27;;;26.40;37.70;;;;;;5007158;28;20029;-72
2021/06/25 09:52:49;;;;;;;2.40;1.55;;;26.40;37.10;;;;;;5019716;28;20135;-72
2021/06/25 09:55:21;;;;;;;5.70;2.08;;;26.50;36.40;;;;;;5011685;28;20049;-72
2021/06/25 10:03:40;;;;;;;3.03;1.50;;;26.70;35.00;;;;;;4995240;28;20061;-71
2021/06/25 10:06:12;;;;;;;2.53;1.85;;;26.70;34.90;;;;;;5022705;28;20041;-71
2021/06/25 10:08:38;;;;;;;4.82;1.40;;;26.60;34.70;;;;;;5018327;28;25646;-71
2021/06/25 10:11:05;;;;;;;6.05;2.13;;;26.90;35.00;;;;;;5012846;28;20133;-72
2021/06/25 10:13:33;;;;;;;1.42;1.02;;;27.00;35.30;;;;;;5020045;28;20033;-71
2021/06/25 10:15:59;;;;;;;2.13;1.98;;;26.90;32.60;;;;;;5016775;28;20101;-71
2021/06/25 10:18:28;;;;;;;2.97;1.92;;;27.30;34.10;;;;;;5022032;28;20399;-72
2021/06/25 10:20:55;;;;;;;3.22;1.85;;;27.30;34.50;;;;;;5006845;28;20071;-71
2021/06/25 10:23:23;;;;;;;3.05;1.48;;;27.20;35.10;;;;;;5025625;28;20053;-71
2021/06/25 10:25:50;;;;;;;8.73;1.80;;;27.30;34.90;;;;;;5015388;28;20503;-70
2021/06/25 10:28:18;;;;;;;4.13;1.70;;;27.40;35.00;;;;;;5018840;28;20125;-71
2021/06/25 10:30:45;;;;;;;2.17;1.63;;;27.50;35.00;;;;;;5011188;28;20046;-71
2021/06/25 10:33:12;;;;;;;4.05;1.40;;;27.50;34.50;;;;;;5026487;28;20052;-71
2021/06/25 10:35:38;;;;;;;2.88;1.52;;;27.60;34.00;;;;;;5011094;28;20038;-72
2021/06/25 10:38:04;;;;;;;1.95;1.30;;;27.60;32.90;;;;;;5023882;28;20124;-73
2021/06/25 10:40:29;;;;;;;4.35;2.20;;;27.70;33.30;;;;;;5019607;28;20160;-72
2021/06/25 10:42:56;;;;;;;2.45;1.63;;;28.00;33.70;;;;;;5020700;28;20434;-72
2021/06/25 10:45:44;;;;;;;4.63;2.00;;;28.10;34.30;;;;;;5017181;28;20053;-73
2021/06/25 10:48:10;;;;;;;2.22;1.58;;;28.10;34.60;;;;;;5020369;28;20030;-72
2021/06/25 10:50:37;;;;;;;2.83;1.55;;;28.50;34.20;;;;;;5014165;28;20049;-72
2021/06/25 10:53:08;;;;;;;3.22;1.35;;;28.70;32.30;;;;;;5006541;28;20475;-72
2021/06/25 10:55:44;;;;;;;3.85;1.38;;;28.90;31.50;;;;;;5008441;28;20046;-73
2021/06/25 10:58:11;;;;;;;7.18;1.75;;;29.50;30.70;;;;;;5000029;28;20164;-72
2021/06/25 11:00:39;;;;;;;2.88;1.70;;;30.30;29.40;;;;;;5006987;28;20056;-72
2021/06/25 11:03:06;;;;;;;2.85;1.80;;;32.10;28.50;;;;;;5012114;28;20402;-72
2021/06/25 11:05:32;;;;;;;2.33;1.92;;;33.40;28.00;;;;;;5021079;28;20502;-71
2021/06/25 11:08:00;;;;;;;2.90;1.80;;;34.70;26.70;;;;;;5000941;28;20046;-70
2021/06/25 11:10:34;;;;;;;4.35;1.70;;;35.80;25.30;;;;;;5012922;28;20049;-70
2021/06/25 11:13:17;;;;;;;5.57;2.15;;;36.40;22.80;;;;;;5014362;28;20033;-72
2021/06/25 11:15:45;;;;;;;1.67;1.58;;;36.90;23.70;;;;;;5008669;28;20030;-70
2021/06/25 11:18:23;;;;;;;2.95;2.38;;;36.10;24.00;;;;;;5017738;28;20244;-72
2021/06/25 11:21:08;;;;;;;2.47;1.65;;;35.40;23.90;;;;;;5020320;28;20037;-64
2021/06/25 11:23:40;;;;;;;3.25;2.38;;;34.60;24.20;;;;;;5019053;28;20033;-71
2021/06/25 11:26:23;;;;;;;3.28;1.85;;;33.10;25.40;;;;;;5014838;28;20077;-70
2021/06/25 11:28:54;;;;;;;3.45;2.72;;;33.10;25.90;;;;;;5019348;28;20148;-68
2021/06/25 11:31:22;;;;;;;14.18;7.78;;;33.10;26.70;;;;;;5022553;28;20030;-70
2021/06/25 11:33:49;;;;;;;2.28;2.08;;;33.80;26.80;;;;;;5020195;28;20033;-71
2021/06/25 11:36:28;;;;;;;2.65;2.38;;;34.60;26.20;;;;;;5017852;28;20033;-71
2021/06/25 11:39:20;;;;;;;5.95;2.55;;;33.70;26.00;;;;;;4997714;28;20045;-70
2021/06/25 11:41:49;;;;;;;2.13;1.83;;;33.60;26.00;;;;;;5024968;28;20069;-70
2021/06/25 11:44:21;;;;;;;5.03;2.33;;;33.00;26.20;;;;;;5018989;28;20144;-70
2021/06/25 11:47:00;;;;;;;2.67;2.13;;;32.80;26.20;;;;;;5020277;28;20049;-71
2021/06/25 11:49:34;;;;;;;3.20;2.40;;;32.80;26.60;;;;;;4996194;28;20041;-72
2021/06/25 11:52:07;;;;;;;3.15;1.77;;;32.90;26.40;;;;;;5021376;28;20129;-71
2021/06/25 11:54:36;;;;;;;4.85;2.22;;;33.20;26.10;;;;;;5016978;28;20045;-71
2021/06/25 11:57:02;;;;;;;3.60;2.30;;;33.20;26.50;;;;;;5018723;28;20044;-71
2021/06/25 11:59:28;;;;;;;6.97;2.40;;;33.20;26.10;;;;;;5016200;28;20077;-71
2021/06/25 12:01:59;;;;;;;3.55;2.03;;;34.20;26.30;;;;;;5016741;28;20533;-68
2021/06/25 12:04:34;;;;;;;3.95;2.00;;;34.20;25.50;;;;;;5012079;28;20487;-70
2021/06/25 12:07:00;;;;;;;4.60;2.70;;;34.80;25.20;;;;;;5020953;28;20041;-71
2021/06/25 12:09:51;;;;;;;3.45;2.00;;;35.50;24.30;;;;;;5016794;28;20040;-71
2021/06/25 12:12:21;;;;;;;2.75;1.83;;;36.60;22.70;;;;;;5021392;28;20108;-72
2021/06/25 12:14:48;;;;;;;4.40;1.70;;;;;;;;;;5014243;28;20441;-72
2021/06/25 12:17:14;;;;;;;3.15;1.67;;;36.50;53.10;;;;;;5012020;28;20044;-71
2021/06/25 12:19:40;;;;;;;2.28;2.08;;;;;;;;;;5016348;28;20110;-72
2021/06/25 12:22:10;;;;;;;3.35;1.63;;;;;;;;;;5014712;28;20041;-72
2021/06/25 12:24:52;;;;;;;2.45;2.25;;;;;;;;;;5013551;28;20049;-73
2021/06/25 12:27:18;;;;;;;4.72;1.98;;;;;;;;;;5016464;28;20055;-73
2021/06/25 12:29:45;;;;;;;2.03;1.77;;;;;;;;;;5013852;28;20069;-74
2021/06/25 12:32:20;;;;;;;2.40;2.13;;;;;;;;;;5017731;28;20179;-74
2021/06/25 12:34:47;;;;;;;1.50;1.40;;;;;;;;;;5014529;28;20182;-72
2021/06/25 12:37:13;;;;;;;3.63;1.70;;;;;;;;;;5014005;28;20537;-73
2021/06/25 12:39:44;;;;;;;3.45;1.77;;;;;;;;;;5019201;28;20053;-73
2021/06/25 12:42:10;;;;;;;2.55;1.60;;;40.20;44.30;;;;;;5015299;28;20065;-73
2021/06/25 12:44:36;;;;;;;4.18;1.70;;;40.30;38.60;;;;;;5013597;28;20045;-72
2021/06/25 12:47:06;;;;;;;3.22;1.70;;;40.40;39.30;;;;;;5010037;28;20044;-73
2021/06/25 12:49:34;;;;;;;2.72;1.83;;;41.60;22.50;;;;;;5018211;28;20624;-72
2021/06/25 12:52:00;;;;;;;3.15;1.95;;;42.70;18.20;;;;;;4997721;28;20062;-71
2021/06/25 12:54:30;;;;;;;5.22;2.40;;;42.40;18.10;;;;;;5011219;28;20682;-71
2021/06/25 12:56:56;;;;;;;1.85;1.75;;;42.30;17.80;;;;;;5013540;28;20050;-72
2021/06/25 12:59:24;;;;;;;2.92;1.73;;;40.00;19.30;;;;;;5016104;28;20101;-72
2021/06/25 13:01:55;;;;;;;3.20;1.92;;;39.90;19.50;;;;;;4999225;28;20129;-73
2021/06/25 13:04:27;;;;;;;1.85;1.70;;;39.30;18.70;;;;;;5012522;28;20076;-54
2021/06/25 13:06:58;;;;;;;3.03;2.05;;;39.30;19.10;;;;;;5015548;28;20045;-71
2021/06/25 13:09:30;;;;;;;2.05;1.85;;;39.70;18.60;;;;;;5019782;28;20045;-72